createdAt,value
2018-09-11T00:01:16.726Z,4.50
2018-09-11T00:03:45.583Z,4.47
2018-09-11T00:06:14.446Z,4.53
2018-09-11T00:08:43.375Z,4.50
2018-09-11T00:11:12.179Z,4.90
2018-09-11T00:13:40.934Z,4.57
2018-09-11T00:16:09.851Z,5.00
2018-09-11T00:18:38.975Z,4.60
2018-09-11T00:21:07.791Z,4.73
2018-09-11T00:23:36.599Z,4.90
2018-09-11T00:26:05.446Z,4.53
2018-09-11T00:28:34.272Z,4.83
2018-09-11T00:31:03.023Z,4.90
2018-09-11T00:33:31.819Z,5.00
2018-09-11T00:36:00.616Z,5.07
2018-09-11T00:38:29.393Z,4.77
2018-09-11T00:40:58.245Z,4.50
2018-09-11T00:43:27.069Z,4.67
2018-09-11T00:45:55.862Z,4.90
2018-09-11T00:48:24.639Z,4.97
2018-09-11T00:50:53.460Z,4.90
2018-09-11T00:53:22.313Z,4.70
2018-09-11T00:55:51.311Z,5.00
2018-09-11T00:58:20.106Z,4.73
2018-09-11T01:00:49.018Z,4.80
2018-09-11T01:03:17.856Z,5.00
2018-09-11T01:05:46.671Z,4.70
2018-09-11T01:08:15.474Z,4.83
2018-09-11T01:10:44.415Z,4.80
2018-09-11T01:13:13.230Z,5.00
2018-09-11T01:15:42.107Z,5.53
2018-09-11T01:18:10.911Z,4.93
2018-09-11T01:20:39.776Z,5.27
2018-09-11T01:23:08.647Z,4.90
2018-09-11T01:25:37.480Z,5.60
2018-09-11T01:28:06.278Z,5.20
2018-09-11T01:30:35.094Z,5.10
2018-09-11T01:33:03.876Z,5.23
2018-09-11T01:35:32.710Z,4.90
2018-09-11T01:38:01.531Z,4.90
2018-09-11T01:40:30.333Z,4.63
2018-09-11T01:42:59.259Z,5.23
2018-09-11T01:45:28.032Z,4.90
2018-09-11T01:47:56.947Z,5.03
2018-09-11T01:50:25.759Z,4.73
2018-09-11T01:52:54.595Z,4.60
2018-09-11T01:55:23.408Z,4.37
2018-09-11T01:57:52.188Z,4.47
2018-09-11T02:00:21.564Z,4.80
2018-09-11T02:02:50.361Z,4.80
2018-09-11T02:05:19.326Z,5.20
2018-09-11T02:07:48.868Z,5.17
2018-09-11T02:10:17.645Z,4.60
2018-09-11T02:12:46.602Z,5.20
2018-09-11T02:15:15.435Z,5.17
2018-09-11T02:17:44.304Z,5.10
2018-09-11T02:20:13.135Z,4.87
2018-09-11T02:22:41.896Z,5.27
2018-09-11T02:25:10.744Z,4.67
2018-09-11T02:27:39.560Z,5.40
2018-09-11T02:30:08.392Z,4.80
2018-09-11T02:32:37.244Z,5.40
2018-09-11T02:35:06.187Z,5.33
2018-09-11T02:37:35.011Z,5.20
2018-09-11T02:40:03.887Z,4.97
2018-09-11T02:42:32.773Z,4.97
2018-09-11T02:45:01.655Z,5.03
2018-09-11T02:47:30.447Z,5.00
2018-09-11T02:49:59.282Z,4.80
2018-09-11T02:52:28.120Z,4.73
2018-09-11T02:54:56.972Z,4.90
2018-09-11T02:57:25.730Z,4.70
2018-09-11T02:59:54.553Z,4.33
2018-09-11T03:02:23.382Z,4.80
2018-09-11T03:04:52.248Z,4.70
2018-09-11T03:07:21.054Z,5.00
2018-09-11T03:09:49.885Z,4.90
2018-09-11T03:12:18.683Z,5.07
2018-09-11T03:14:47.577Z,5.60
2018-09-11T03:17:16.395Z,5.37
2018-09-11T03:19:45.187Z,4.90
2018-09-11T03:22:14.036Z,5.10
2018-09-11T03:24:42.835Z,4.53
2018-09-11T03:27:11.602Z,4.97
2018-09-11T03:29:40.430Z,4.90
2018-09-11T03:32:09.449Z,5.43
2018-09-11T03:34:38.244Z,6.23
2018-09-11T03:37:07.150Z,5.10
2018-09-11T03:39:35.914Z,4.93
2018-09-11T03:42:04.720Z,5.37
2018-09-11T03:44:33.526Z,4.50
2018-09-11T03:47:02.303Z,4.77
2018-09-11T03:49:31.111Z,5.93
2018-09-11T03:51:59.914Z,5.20
2018-09-11T03:54:28.756Z,5.00
2018-09-11T03:56:57.605Z,5.60
2018-09-11T03:59:26.415Z,4.47
2018-09-11T04:01:55.182Z,5.23
2018-09-11T04:04:24.047Z,4.90
2018-09-11T04:06:52.861Z,4.60
2018-09-11T04:09:21.667Z,4.80
2018-09-11T04:11:50.466Z,4.53
2018-09-11T04:14:19.298Z,5.10
2018-09-11T04:16:48.229Z,4.60
2018-09-11T04:19:17.073Z,5.17
2018-09-11T04:21:45.964Z,4.83
2018-09-11T04:24:14.960Z,4.87
2018-09-11T04:26:43.804Z,4.47
2018-09-11T04:29:12.616Z,5.53
2018-09-11T04:31:41.378Z,4.60
2018-09-11T04:34:10.196Z,4.60
2018-09-11T04:36:39.021Z,4.70
2018-09-11T04:39:08.523Z,4.23
2018-09-11T04:41:37.439Z,4.60
2018-09-11T04:44:06.467Z,4.40
2018-09-11T04:46:35.274Z,4.90
2018-09-11T04:49:04.076Z,5.30
2018-09-11T04:51:32.896Z,5.13
2018-09-11T04:54:01.700Z,4.97
2018-09-11T04:56:30.518Z,5.90
2018-09-11T04:58:59.364Z,4.63
2018-09-11T05:01:28.177Z,4.90
2018-09-11T05:03:56.996Z,5.23
2018-09-11T05:06:35.272Z,5.93
2018-09-11T05:09:04.447Z,4.90
2018-09-11T05:11:33.514Z,4.60
2018-09-11T05:14:02.784Z,5.23
2018-09-11T05:16:31.751Z,5.80
2018-09-11T05:19:00.639Z,5.43
2018-09-11T05:21:29.690Z,5.17
2018-09-11T05:23:58.618Z,4.90
2018-09-11T05:26:28.457Z,5.30
2018-09-11T05:28:58.079Z,5.37
2018-09-11T05:31:30.145Z,5.03
2018-09-11T05:33:59.235Z,5.00
2018-09-11T05:36:28.122Z,4.90
2018-09-11T05:38:57.050Z,5.20
2018-09-11T05:41:25.867Z,4.73
2018-09-11T05:43:54.710Z,5.60
2018-09-11T05:46:29.052Z,5.27
2018-09-11T05:48:57.905Z,6.07
2018-09-11T05:51:28.394Z,4.70
2018-09-11T05:53:59.768Z,4.60
2018-09-11T05:56:33.221Z,5.63
2018-09-11T05:59:02.129Z,4.90
2018-09-11T06:01:34.577Z,4.63
2018-09-11T06:04:03.643Z,4.73
2018-09-11T06:06:32.849Z,4.37
2018-09-11T06:09:01.715Z,6.13
2018-09-11T06:11:30.658Z,4.27
2018-09-11T06:13:59.713Z,5.00
2018-09-11T06:16:28.576Z,5.13
2018-09-11T06:18:57.450Z,5.40
2018-09-11T06:21:26.306Z,5.33
2018-09-11T06:23:55.177Z,4.60
2018-09-11T06:26:24.068Z,4.83
2018-09-11T06:28:53.009Z,5.03
2018-09-11T06:31:21.918Z,4.80
2018-09-11T06:33:50.764Z,4.87
2018-09-11T06:36:19.697Z,5.07
2018-09-11T06:38:48.559Z,5.33
2018-09-11T06:41:22.973Z,5.57
2018-09-11T06:43:54.387Z,6.67
2018-09-11T06:46:28.387Z,5.40
2018-09-11T06:48:57.360Z,5.07
2018-09-11T06:51:26.256Z,5.30
2018-09-11T06:53:55.169Z,5.60
2018-09-11T06:56:24.341Z,5.30
2018-09-11T07:01:35.643Z,6.20
2018-09-11T07:04:04.666Z,4.83
2018-09-11T07:06:33.515Z,4.80
2018-09-11T07:09:02.336Z,4.90
2018-09-11T07:11:31.432Z,4.37
2018-09-11T07:14:00.279Z,4.87
2018-09-11T07:16:29.166Z,5.03
2018-09-11T07:18:58.068Z,5.50
2018-09-11T07:21:26.874Z,5.23
2018-09-11T07:23:55.822Z,5.00
2018-09-11T07:26:34.436Z,5.10
2018-09-11T07:29:03.314Z,5.10
2018-09-11T07:31:32.899Z,5.17
2018-09-11T07:34:01.732Z,4.50
2018-09-11T07:36:31.663Z,4.97
2018-09-11T07:39:00.451Z,5.30
2018-09-11T07:41:29.337Z,4.90
2018-09-11T07:43:58.173Z,4.67
2018-09-11T07:46:32.293Z,4.60
2018-09-11T07:49:01.141Z,4.33
2018-09-11T07:51:29.937Z,4.60
2018-09-11T07:53:58.832Z,4.27
2018-09-11T07:56:27.568Z,4.30
2018-09-11T07:58:56.438Z,4.87
2018-09-11T08:01:25.269Z,4.27
2018-09-11T08:03:54.143Z,4.20
2018-09-11T08:06:22.968Z,4.13
2018-09-11T08:08:51.807Z,3.93
2018-09-11T08:11:20.625Z,4.07
2018-09-11T08:13:49.451Z,3.67
2018-09-11T08:16:18.447Z,3.23
2018-09-11T08:18:47.443Z,3.60
2018-09-11T08:21:16.293Z,3.57
2018-09-11T08:23:45.084Z,3.30
2018-09-11T08:26:13.923Z,3.67
2018-09-11T08:28:42.768Z,3.50
2018-09-11T08:31:11.621Z,3.80
2018-09-11T08:33:40.479Z,3.40
2018-09-11T08:36:09.348Z,3.53
2018-09-11T08:38:38.210Z,3.50
2018-09-11T08:41:07.099Z,3.80
2018-09-11T08:43:35.863Z,3.87
2018-09-11T08:46:04.683Z,3.93
2018-09-11T08:48:33.464Z,4.37
2018-09-11T08:51:02.245Z,3.70
2018-09-11T08:53:31.079Z,4.23
2018-09-11T08:56:00.048Z,4.37
2018-09-11T08:58:29.423Z,4.27
2018-09-11T09:00:58.618Z,4.10
2018-09-11T09:03:27.474Z,3.80
2018-09-11T09:05:56.442Z,3.93
2018-09-11T09:08:25.273Z,4.17
2018-09-11T09:10:54.277Z,4.10
2018-09-11T09:13:23.105Z,4.57
2018-09-11T09:15:52.099Z,4.67
2018-09-11T09:18:20.906Z,4.00
2018-09-11T09:20:49.921Z,4.23
2018-09-11T09:23:18.956Z,4.27
2018-09-11T09:25:47.804Z,4.13
2018-09-11T09:28:16.707Z,4.03
2018-09-11T09:30:45.542Z,4.10
2018-09-11T09:33:14.406Z,4.70
2018-09-11T09:35:43.184Z,4.23
2018-09-11T09:38:12.014Z,4.00
2018-09-11T09:40:40.848Z,4.17
2018-09-11T09:43:09.715Z,4.37
2018-09-11T09:45:38.547Z,4.17
2018-09-11T09:48:07.360Z,3.80
2018-09-11T09:50:36.161Z,4.13
2018-09-11T09:53:04.981Z,4.20
2018-09-11T09:55:34.108Z,4.17
2018-09-11T09:58:02.923Z,4.20
2018-09-11T10:00:36.981Z,4.70
2018-09-11T10:03:05.814Z,4.47
2018-09-11T10:05:34.667Z,4.60
2018-09-11T10:08:03.544Z,4.77
2018-09-11T10:10:32.444Z,4.70
2018-09-11T10:13:01.267Z,4.27
2018-09-11T10:15:30.049Z,5.77
2018-09-11T10:17:58.979Z,3.70
2018-09-11T10:20:27.780Z,4.40
2018-09-11T10:22:56.601Z,3.85
2018-09-11T10:25:25.427Z,4.75
2018-09-11T10:27:54.223Z,4.85
2018-09-11T10:30:22.999Z,4.65
2018-09-11T10:32:51.841Z,4.45
2018-09-11T10:35:25.940Z,4.42
2018-09-11T10:37:54.744Z,4.70
2018-09-11T10:40:29.314Z,5.10
2018-09-11T10:43:01.907Z,4.83
2018-09-11T10:45:32.208Z,4.42
2018-09-11T10:48:01.234Z,4.67
2018-09-11T10:50:30.071Z,4.47
2018-09-11T10:52:58.940Z,5.22
2018-09-11T10:55:36.191Z,4.90
2018-09-11T10:58:05.946Z,4.72
2018-09-11T11:00:34.768Z,5.00
2018-09-11T11:03:03.685Z,4.47
2018-09-11T11:05:32.633Z,4.70
2018-09-11T11:08:01.473Z,4.50
2018-09-11T11:10:30.437Z,4.53
2018-09-11T11:12:59.284Z,4.67
2018-09-11T11:15:28.080Z,4.53
2018-09-11T11:17:56.896Z,4.28
2018-09-11T11:20:25.695Z,5.12
2018-09-11T11:22:54.678Z,4.10
2018-09-11T11:25:23.652Z,4.50
2018-09-11T11:27:52.429Z,4.67
2018-09-11T11:30:21.219Z,4.40
2018-09-11T11:32:50.015Z,4.90
2018-09-11T11:35:18.946Z,4.10
2018-09-11T11:37:47.806Z,4.20
2018-09-11T11:40:16.705Z,4.12
2018-09-11T11:42:45.830Z,4.30
2018-09-11T11:45:14.942Z,4.40
2018-09-11T11:47:43.758Z,3.85
2018-09-11T11:50:12.630Z,4.10
2018-09-11T11:52:41.448Z,3.72
2018-09-11T11:55:11.332Z,3.87
2018-09-11T11:57:40.040Z,3.87
2018-09-11T12:00:09.132Z,3.83
2018-09-11T12:02:39.072Z,3.90
2018-09-11T12:05:10.425Z,4.03
2018-09-11T12:07:39.506Z,4.12
2018-09-11T12:10:08.373Z,3.80
2018-09-11T12:12:37.325Z,4.20
2018-09-11T12:15:19.831Z,4.15
2018-09-11T12:17:48.685Z,3.98
2018-09-11T12:20:17.505Z,4.17
2018-09-11T12:22:46.386Z,3.95
2018-09-11T12:25:15.199Z,4.42
2018-09-11T12:27:44.011Z,4.55
2018-09-11T12:30:13.176Z,4.12
2018-09-11T12:32:42.099Z,4.12
2018-09-11T12:35:11.367Z,4.42
2018-09-11T12:37:40.166Z,4.42
2018-09-11T12:40:08.985Z,4.42
2018-09-11T12:42:37.776Z,4.37
2018-09-11T12:45:06.911Z,3.95
2018-09-11T12:47:35.971Z,4.40
2018-09-11T12:50:04.610Z,4.37
2018-09-11T12:52:33.416Z,4.37
2018-09-11T12:55:02.280Z,4.15
2018-09-11T12:57:31.096Z,5.47
2018-09-11T12:59:59.898Z,4.92
2018-09-11T13:02:28.885Z,4.78
2018-09-11T13:04:57.664Z,4.40
2018-09-11T13:07:26.457Z,4.10
2018-09-11T13:09:55.264Z,4.45
2018-09-11T13:12:24.095Z,3.90
2018-09-11T13:14:53.362Z,4.50
2018-09-11T13:17:22.317Z,4.12
2018-09-11T13:19:51.182Z,4.75
2018-09-11T13:22:20.014Z,4.20
2018-09-11T13:24:48.822Z,3.87
2018-09-11T13:27:17.632Z,4.22
2018-09-11T13:29:46.660Z,4.20
2018-09-11T13:32:15.512Z,4.28
2018-09-11T13:34:45.259Z,4.42
2018-09-11T13:37:14.644Z,3.77
2018-09-11T13:39:43.610Z,3.98
2018-09-11T13:42:12.507Z,4.12
2018-09-11T13:44:41.299Z,3.92
2018-09-11T13:47:11.137Z,4.25
2018-09-11T13:49:39.905Z,3.55
2018-09-11T13:52:08.672Z,3.85
2018-09-11T13:54:37.403Z,4.10
2018-09-11T13:57:06.770Z,4.00
2018-09-11T13:59:35.599Z,3.60
2018-09-11T14:02:04.603Z,3.83
2018-09-11T14:04:35.664Z,4.03
2018-09-11T14:07:07.677Z,4.25
2018-09-11T14:09:37.600Z,3.98
2018-09-11T14:12:08.480Z,3.77
2018-09-11T14:14:37.348Z,3.58
2018-09-11T14:17:06.351Z,3.77
2018-09-11T14:19:35.292Z,3.55
2018-09-11T14:22:04.313Z,4.10
2018-09-11T14:24:33.087Z,3.52
2018-09-11T14:27:02.065Z,3.33
2018-09-11T14:29:30.922Z,3.67
2018-09-11T14:31:59.876Z,3.75
2018-09-11T14:34:29.714Z,3.98
2018-09-11T14:36:58.493Z,3.80
2018-09-11T14:39:27.300Z,3.52
2018-09-11T14:41:56.112Z,4.28
2018-09-11T14:44:24.954Z,3.60
2018-09-11T14:46:53.824Z,3.58
2018-09-11T14:49:22.615Z,3.90
2018-09-11T14:51:51.591Z,4.30
2018-09-11T14:54:20.446Z,3.87
2018-09-11T14:56:49.233Z,3.87
2018-09-11T14:59:18.038Z,3.52
2018-09-11T15:01:46.816Z,4.03
2018-09-11T15:04:15.860Z,3.65
2018-09-11T15:06:46.064Z,4.12
2018-09-11T15:09:15.035Z,3.80
2018-09-11T15:11:43.840Z,3.65
2018-09-11T15:14:12.523Z,3.90
2018-09-11T15:16:41.382Z,3.77
2018-09-11T15:19:10.167Z,3.90
2018-09-11T15:21:39.069Z,3.50
2018-09-11T15:24:07.986Z,3.90
2018-09-11T15:26:36.826Z,3.80
2018-09-11T15:29:05.862Z,3.72
2018-09-11T15:31:34.756Z,3.60
2018-09-11T15:34:03.672Z,3.90
2018-09-11T15:36:32.773Z,3.87
2018-09-11T15:39:02.227Z,3.40
2018-09-11T15:41:31.096Z,3.90
2018-09-11T15:44:02.991Z,4.15
2018-09-11T15:46:32.331Z,3.72
2018-09-11T15:49:01.154Z,3.75
2018-09-11T15:51:29.925Z,4.30
2018-09-11T15:53:58.764Z,4.08
2018-09-11T15:56:27.619Z,4.15
2018-09-11T15:58:56.308Z,4.00
2018-09-11T16:01:25.118Z,4.03
2018-09-11T16:03:53.863Z,3.83
2018-09-11T16:06:22.591Z,4.22
2018-09-11T16:08:51.378Z,4.30
2018-09-11T16:11:20.155Z,4.22
2018-09-11T16:13:49.032Z,4.10
2018-09-11T16:16:18.148Z,3.65
2018-09-11T16:18:47.119Z,4.80
2018-09-11T16:21:15.954Z,4.10
2018-09-11T16:23:44.748Z,3.95
2018-09-11T16:26:13.939Z,3.92
2018-09-11T16:28:42.748Z,3.90
2018-09-11T16:31:11.668Z,4.05
2018-09-11T16:33:40.560Z,4.05
2018-09-11T16:36:09.450Z,4.53
2018-09-11T16:38:38.311Z,4.25
2018-09-11T16:41:07.280Z,3.93
2018-09-11T16:43:36.124Z,4.10
2018-09-11T16:46:05.032Z,4.90
2018-09-11T16:48:33.740Z,4.07
2018-09-11T16:51:02.530Z,4.83
2018-09-11T16:53:31.359Z,4.37
2018-09-11T16:56:05.263Z,4.00
2018-09-11T16:58:33.970Z,4.17
2018-09-11T17:01:02.748Z,4.07
2018-09-11T17:03:31.687Z,3.80
2018-09-11T17:06:00.450Z,4.70
2018-09-11T17:08:29.271Z,3.80
2018-09-11T17:10:58.091Z,3.67
2018-09-11T17:13:27.397Z,3.80
2018-09-11T17:15:56.320Z,4.43
2018-09-11T17:18:25.132Z,4.23
2018-09-11T17:20:54.029Z,3.83
2018-09-11T17:23:22.815Z,3.93
2018-09-11T17:25:51.679Z,4.43
2018-09-11T17:28:20.527Z,4.53
2018-09-11T17:30:49.424Z,4.20
2018-09-11T17:33:18.339Z,4.23
2018-09-11T17:35:47.418Z,4.60
2018-09-11T17:38:16.220Z,4.40
2018-09-11T17:40:45.019Z,4.23
2018-09-11T17:43:13.804Z,4.60
2018-09-11T17:45:42.594Z,4.50
2018-09-11T17:48:11.395Z,4.60
2018-09-11T17:50:40.165Z,4.50
2018-09-11T17:53:09.484Z,4.50
2018-09-11T17:55:38.377Z,4.30
2018-09-11T17:58:07.247Z,5.03
2018-09-11T18:00:36.140Z,4.60
2018-09-11T18:03:05.000Z,4.80
2018-09-11T18:05:33.822Z,4.73
2018-09-11T18:08:02.650Z,4.40
2018-09-11T18:10:31.544Z,4.63
2018-09-11T18:13:00.372Z,4.87
2018-09-11T18:15:29.198Z,4.60
2018-09-11T18:17:58.026Z,4.90
2018-09-11T18:20:26.864Z,4.37
2018-09-11T18:22:55.730Z,5.20
2018-09-11T18:25:24.537Z,4.80
2018-09-11T18:27:53.387Z,4.40
2018-09-11T18:30:22.280Z,4.57
2018-09-11T18:32:51.105Z,5.30
2018-09-11T18:35:20.245Z,5.10
2018-09-11T18:37:49.101Z,4.90
2018-09-11T18:40:17.973Z,4.23
2018-09-11T18:42:46.792Z,4.67
2018-09-11T18:45:16.226Z,4.47
2018-09-11T18:47:45.071Z,4.87
2018-09-11T18:50:13.913Z,4.67
2018-09-11T18:52:42.739Z,4.70
2018-09-11T18:55:11.635Z,4.40
2018-09-11T18:57:40.486Z,5.10
2018-09-11T19:00:09.438Z,4.43
2018-09-11T19:02:38.201Z,4.53
2018-09-11T19:05:07.241Z,5.27
2018-09-11T19:07:36.236Z,4.33
2018-09-11T19:10:05.026Z,4.57
2018-09-11T19:12:33.836Z,3.97
2018-09-11T19:15:02.728Z,4.03
2018-09-11T19:17:31.560Z,4.40
2018-09-11T19:20:00.417Z,4.43
2018-09-11T19:22:29.211Z,4.53
2018-09-11T19:24:58.389Z,3.80
2018-09-11T19:27:27.234Z,4.10
2018-09-11T19:29:56.032Z,4.57
2018-09-11T19:32:24.845Z,4.30
2018-09-11T19:34:53.700Z,4.10
2018-09-11T19:37:22.466Z,4.07
2018-09-11T19:39:51.472Z,4.80
2018-09-11T19:42:20.319Z,4.13
2018-09-11T19:44:49.076Z,5.33
2018-09-11T19:47:17.991Z,4.23
2018-09-11T19:49:47.037Z,4.27
2018-09-11T19:52:15.934Z,4.17
2018-09-11T19:54:44.755Z,4.53
2018-09-11T19:57:14.582Z,5.07
2018-09-11T19:59:43.400Z,4.30
2018-09-11T20:02:12.385Z,4.00
2018-09-11T20:04:41.176Z,4.63
2018-09-11T20:07:10.008Z,4.27
2018-09-11T20:09:38.857Z,4.57
2018-09-11T20:12:07.778Z,4.60
2018-09-11T20:14:36.582Z,4.63
2018-09-11T20:17:05.486Z,4.63
2018-09-11T20:19:34.288Z,4.47
2018-09-11T20:22:03.293Z,4.57
2018-09-11T20:24:32.131Z,4.23
2018-09-11T20:27:06.171Z,4.10
2018-09-11T20:29:35.198Z,4.13
2018-09-11T20:32:04.036Z,4.07
2018-09-11T20:34:32.960Z,4.30
2018-09-11T20:37:01.908Z,4.50
2018-09-11T20:39:30.743Z,4.53
2018-09-11T20:41:59.566Z,4.67
2018-09-11T20:44:28.783Z,4.43
2018-09-11T20:46:57.645Z,4.23
2018-09-11T20:49:26.443Z,3.90
2018-09-11T20:51:55.295Z,4.10
2018-09-11T20:54:24.114Z,4.10
2018-09-11T20:56:53.020Z,4.20
2018-09-11T20:59:21.865Z,4.00
2018-09-11T21:01:50.675Z,4.33
2018-09-11T21:04:19.507Z,4.10
2018-09-11T21:06:48.330Z,4.43
2018-09-11T21:09:17.160Z,3.83
2018-09-11T21:11:46.005Z,4.03
2018-09-11T21:14:14.831Z,3.90
2018-09-11T21:16:43.659Z,4.20
2018-09-11T21:19:12.573Z,4.07
2018-09-11T21:21:41.390Z,3.77
2018-09-11T21:24:10.195Z,4.13
2018-09-11T21:26:39.216Z,3.93
2018-09-11T21:29:08.095Z,4.53
2018-09-11T21:31:36.917Z,4.27
2018-09-11T21:34:05.894Z,4.47
2018-09-11T21:36:34.723Z,4.80
2018-09-11T21:39:03.644Z,4.00
2018-09-11T21:41:32.667Z,4.63
2018-09-11T21:44:01.497Z,4.33
2018-09-11T21:46:30.384Z,3.70
2018-09-11T21:48:59.204Z,4.30
2018-09-11T21:51:27.994Z,4.37
2018-09-11T21:53:56.816Z,4.37
2018-09-11T21:56:25.708Z,4.10
2018-09-11T21:58:54.618Z,4.13
2018-09-11T22:01:28.595Z,4.10
2018-09-11T22:03:57.396Z,4.63
2018-09-11T22:06:26.375Z,4.03
2018-09-11T22:08:55.196Z,3.97
2018-09-11T22:11:24.080Z,4.03
2018-09-11T22:13:53.027Z,4.13
2018-09-11T22:16:21.846Z,4.27
2018-09-11T22:18:50.807Z,4.57
2018-09-11T22:21:19.660Z,4.37
2018-09-11T22:23:48.506Z,4.30
2018-09-11T22:26:17.379Z,4.20
2018-09-11T22:28:46.203Z,3.70
2018-09-11T22:31:15.157Z,4.40
2018-09-11T22:33:44.132Z,4.20
2018-09-11T22:36:18.006Z,3.63
2018-09-11T22:38:46.883Z,4.00
2018-09-11T22:41:15.825Z,4.43
2018-09-11T22:43:44.688Z,3.80
2018-09-11T22:46:13.560Z,3.90
2018-09-11T22:48:42.405Z,4.13
2018-09-11T22:51:11.247Z,4.10
2018-09-11T22:53:40.045Z,4.37
2018-09-11T22:56:13.953Z,4.23
2018-09-11T22:58:42.795Z,3.87
2018-09-11T23:01:11.796Z,4.20
2018-09-11T23:03:40.688Z,4.10
2018-09-11T23:06:09.548Z,3.90
2018-09-11T23:08:38.320Z,3.57
2018-09-11T23:11:07.140Z,3.63
2018-09-11T23:13:35.981Z,3.67
2018-09-11T23:16:04.824Z,3.73
2018-09-11T23:18:33.709Z,3.77
2018-09-11T23:21:02.526Z,3.90
2018-09-11T23:23:31.373Z,3.33
2018-09-11T23:26:00.180Z,3.63
2018-09-11T23:28:28.963Z,3.73
2018-09-11T23:30:57.819Z,3.80
2018-09-11T23:33:26.616Z,3.80
2018-09-11T23:36:00.423Z,3.57
2018-09-11T23:38:29.261Z,3.67
2018-09-11T23:40:58.168Z,3.57
2018-09-11T23:43:26.971Z,3.77
2018-09-11T23:45:55.800Z,4.43
2018-09-11T23:48:24.629Z,4.33
2018-09-11T23:50:53.497Z,3.73
2018-09-11T23:53:22.361Z,3.60
2018-09-11T23:55:51.185Z,3.83
2018-09-11T23:58:20.028Z,3.80
